College Hill, Ohio
Current Conditions -  °F | °C
As of 1:53 PM on Saturday 25 Oct 2014 (Local Time) from KLUK Reporting Station
Few Clouds Few Clouds  
Wind Chill: 68°   Ceiling: Unl
Heat Index: 68°   Visibility: 10mi
Dew Point: 57°   Wind: 12mph
Humidity: 68%   Direction: 230°SW
Pressure: 29.94"   Gusts: NA
Location:  39.2009°N, 84.5322°W
Report Text: KLUK 251753Z 23010KT 10SM FEW035 20/14 A2994 RMK AO2 SLP139 T02000139 10200 20056 58022
Loading
Personal Weather Stations






























Interactive Weather Map
Tropical Storm Tracking
New forecast layout! Learn more

10-Day Weather Forecast

Advertisements
Track Severe Weather on mobile